Time;durP1;ratioP1;P1;durP2;ratioP2;P2;SDS_P1;SDS_P2;PMS_P1;PMS_P2;Temp;Humidity;BMP_temperature;BMP_pressure;BME280_temperature;BME280_humidity;BME280_pressure;Samples;Min_cycle;Max_cycle;Signal;HPM_P1;HPM_P2
2022/04/29 00:00:19;;;;;;;16.30;9.82;;;;;;;3.29;93.60;103135.50;2062440;28;46668;-65
2022/04/29 00:01:22;;;;;;;24.88;9.80;;;;;;;3.28;93.53;103141.63;2062269;28;42377;-64
2022/04/29 00:02:24;;;;;;;23.00;10.32;;;;;;;3.33;93.66;103137.44;2062247;28;45717;-64
2022/04/29 00:03:26;;;;;;;26.33;11.73;;;;;;;3.40;94.75;103142.16;2062501;28;44985;-64
2022/04/29 00:04:28;;;;;;;24.50;10.98;;;;;;;3.38;94.66;103135.88;2062250;28;45381;-64
2022/04/29 00:05:30;;;;;;;24.80;10.40;;;;;;;3.34;94.08;103136.63;2065343;28;46154;-64
2022/04/29 00:06:31;;;;;;;22.80;9.65;;;;;;;3.32;93.78;103140.94;2062978;28;44804;-63
2022/04/29 00:07:33;;;;;;;24.73;11.40;;;;;;;3.32;93.94;103143.59;2063866;28;44125;-64
2022/04/29 00:08:35;;;;;;;16.80;10.35;;;;;;;3.30;93.59;103139.94;2063727;28;44954;-65
2022/04/29 00:09:39;;;;;;;21.83;9.63;;;;;;;3.29;94.00;103135.50;2063377;28;44364;-64
2022/04/29 00:10:42;;;;;;;19.02;10.20;;;;;;;3.30;93.79;103139.94;2064316;28;20073;-64
2022/04/29 00:11:46;;;;;;;18.50;9.48;;;;;;;3.28;93.97;103136.34;2057120;28;20042;-65
2022/04/29 00:12:48;;;;;;;22.73;10.52;;;;;;;3.33;94.75;103129.50;2055776;28;45293;-64
2022/04/29 00:13:50;;;;;;;21.92;11.18;;;;;;;3.38;95.01;103127.06;2063151;28;46501;-64
2022/04/29 00:14:52;;;;;;;21.48;10.93;;;;;;;3.31;94.25;103128.53;2063365;28;44738;-63
2022/04/29 00:15:54;;;;;;;19.27;9.68;;;;;;;3.30;94.23;103118.75;2062993;28;44352;-63
2022/04/29 00:16:57;;;;;;;25.50;11.00;;;;;;;3.40;94.73;103126.25;2062776;28;44743;-63
2022/04/29 00:17:59;;;;;;;21.70;9.85;;;;;;;3.43;94.83;103118.47;2063659;28;44382;-64
2022/04/29 00:19:00;;;;;;;24.50;10.27;;;;;;;3.39;94.47;103124.47;2063417;28;46339;-64
2022/04/29 00:20:05;;;;;;;16.15;9.95;;;;;;;3.35;94.25;103122.50;2064062;28;28330;-64
2022/04/29 00:21:08;;;;;;;22.25;9.25;;;;;;;3.31;94.47;103117.94;2063389;28;45342;-63
2022/04/29 00:22:10;;;;;;;15.13;8.45;;;;;;;3.31;93.97;103131.19;2062867;28;45852;-63
2022/04/29 00:23:12;;;;;;;18.83;9.38;;;;;;;3.28;94.17;103131.03;2062796;28;43362;-64
2022/04/29 00:24:16;;;;;;;17.23;9.05;;;;;;;3.27;94.29;103136.25;2063461;28;44010;-64
2022/04/29 00:25:18;;;;;;;16.48;8.80;;;;;;;3.23;94.03;103127.28;2064239;28;31231;-64
2022/04/29 00:26:20;;;;;;;14.95;9.15;;;;;;;3.21;94.31;103129.91;2071204;28;42742;-64
2022/04/29 00:27:21;;;;;;;18.15;9.02;;;;;;;3.18;94.29;103129.75;2070903;28;45514;-64
2022/04/29 00:28:23;;;;;;;18.58;9.35;;;;;;;3.17;94.23;103125.28;2063440;28;45144;-63
2022/04/29 00:29:25;;;;;;;21.13;9.43;;;;;;;3.17;94.28;103127.94;2063921;28;20035;-63
2022/04/29 00:30:27;;;;;;;20.73;10.05;;;;;;;3.19;94.69;103125.34;2071052;28;43410;-64
2022/04/29 00:31:30;;;;;;;19.10;10.85;;;;;;;3.19;94.16;103125.34;2070982;28;45184;-64
2022/04/29 00:32:31;;;;;;;32.05;11.23;;;;;;;3.34;95.02;103127.75;2063556;28;45335;-64
2022/04/29 00:33:33;;;;;;;16.30;9.30;;;;;;;3.25;94.78;103125.63;2064403;28;27408;-63
2022/04/29 00:34:35;;;;;;;18.58;9.63;;;;;;;3.24;94.72;103123.81;2063470;28;44085;-63
2022/04/29 00:35:36;;;;;;;20.73;9.85;;;;;;;3.24;94.71;103129.09;2070875;28;44231;-64
2022/04/29 00:36:38;;;;;;;18.33;8.88;;;;;;;3.21;94.69;103128.97;2072029;28;20876;-64
2022/04/29 00:37:50;;;;;;;18.25;9.23;;;;;;;3.19;94.02;103131.53;2062895;28;20042;-65
2022/04/29 00:38:52;;;;;;;18.88;9.45;;;;;;;3.18;94.42;103128.84;2063590;28;26956;-64
2022/04/29 00:39:54;;;;;;;19.17;9.00;;;;;;;3.15;94.47;103124.31;2063389;28;43955;-64
2022/04/29 00:40:56;;;;;;;17.77;10.35;;;;;;;3.25;94.32;103125.63;2070980;28;32003;-64
2022/04/29 00:41:58;;;;;;;22.40;10.85;;;;;;;3.27;95.20;103118.66;2071853;28;23068;-64
2022/04/29 00:43:00;;;;;;;25.58;10.10;;;;;;;3.29;95.06;103111.69;2063429;28;45146;-63
2022/04/29 00:44:10;;;;;;;20.42;10.35;;;;;;;3.29;94.84;103116.97;2063321;28;43573;-63
2022/04/29 00:45:16;;;;;;;21.08;10.80;;;;;;;3.31;95.11;103104.69;2062731;28;46099;-64
2022/04/29 00:46:17;;;;;;;17.90;8.95;;;;;;;3.29;94.86;103098.44;2062643;28;45984;-65
2022/04/29 00:47:21;;;;;;;17.80;9.32;;;;;;;3.26;94.77;103106.25;2071812;28;20098;-64
2022/04/29 00:48:23;;;;;;;13.45;8.40;;;;;;;3.23;94.56;103104.38;2055380;28;20873;-64
2022/04/29 00:49:25;;;;;;;15.95;8.52;;;;;;;3.20;94.78;103106.00;2054861;28;44927;-64
2022/04/29 00:50:29;;;;;;;12.73;8.52;;;;;;;3.19;94.74;103101.53;2064966;28;20133;-63
2022/04/29 00:51:32;;;;;;;19.23;8.50;;;;;;;3.16;94.42;103104.03;2063151;28;35194;-63
2022/04/29 00:52:36;;;;;;;19.27;8.65;;;;;;;3.13;94.41;103099.53;2055226;28;27347;-64
2022/04/29 00:53:38;;;;;;;23.67;9.60;;;;;;;3.17;94.96;103103.22;2057422;28;20164;-63
2022/04/29 00:54:45;;;;;;;20.50;9.65;;;;;;;3.13;94.67;103110.13;2063952;28;20077;-63
2022/04/29 00:55:48;;;;;;;15.85;8.95;;;;;;;3.11;94.66;103111.81;2063127;28;35339;-64
2022/04/29 00:56:52;;;;;;;15.25;8.38;;;;;;;3.09;94.23;103108.19;2064601;28;22366;-64
2022/04/29 00:58:27;;;;;;;13.50;8.48;;;;;;;3.05;94.62;103109.81;2063930;28;20266;-64
2022/04/29 00:59:49;;;;;;;21.70;8.60;;;;;;;3.03;94.41;103106.19;2063185;28;28448;-63
2022/04/29 01:00:50;;;;;;;20.35;9.30;;;;;;;3.02;94.79;103104.38;2057326;28;44669;-63
2022/04/29 01:01:55;;;;;;;18.15;10.27;;;;;;;3.03;94.46;103100.91;2063870;28;20146;-64
2022/04/29 01:03:00;;;;;;;15.52;8.85;;;;;;;3.10;95.56;103099.41;2062457;28;47834;-63
2022/04/29 01:04:04;;;;;;;22.60;10.10;;;;;;;3.10;95.16;103096.75;2054833;28;40350;-63
2022/04/29 01:05:09;;;;;;;22.20;10.52;;;;;;;3.17;95.78;103089.97;2048428;28;20577;-64
2022/04/29 01:06:11;;;;;;;16.77;9.73;;;;;;;3.13;95.23;103088.06;2064116;28;20034;-64
2022/04/29 01:07:13;;;;;;;17.50;8.60;;;;;;;3.09;95.08;103099.31;2062419;28;42721;-64
2022/04/29 01:08:14;;;;;;;23.25;10.32;;;;;;;3.10;95.53;103090.56;2054861;28;44020;-65
2022/04/29 01:09:17;;;;;;;16.50;9.27;;;;;;;3.08;95.41;103086.94;2063287;28;20181;-64
2022/04/29 01:10:21;;;;;;;17.23;9.02;;;;;;;3.04;95.14;103100.03;2063767;28;20050;-63
2022/04/29 01:11:25;;;;;;;16.48;7.50;;;;;;;3.01;94.97;103094.59;2056316;28;20043;-64
2022/04/29 01:12:32;;;;;;;18.58;8.57;;;;;;;2.96;95.05;103096.19;2056775;28;20829;-63
2022/04/29 01:13:36;;;;;;;13.45;7.40;;;;;;;2.93;94.63;103098.69;2063340;28;34751;-64
2022/04/29 01:14:37;;;;;;;21.73;9.43;;;;;;;2.96;95.41;103093.53;2054777;28;43620;-64
2022/04/29 01:15:42;;;;;;;17.15;9.13;;;;;;;2.93;95.22;103084.56;2040027;28;20033;-65
2022/04/29 01:16:43;;;;;;;23.33;9.77;;;;;;;2.89;94.97;103091.47;2056053;28;20149;-64
2022/04/29 01:17:53;;;;;;;16.67;8.88;;;;;;;2.88;95.15;103089.63;2062664;28;37987;-63
2022/04/29 01:18:55;;;;;;;25.75;9.93;;;;;;;2.86;95.46;103091.31;2063406;28;28588;-63
2022/04/29 01:20:05;;;;;;;15.45;8.98;;;;;;;2.85;94.84;103094.78;2063918;28;20039;-64
2022/04/29 01:21:11;;;;;;;18.85;9.45;;;;;;;2.86;95.28;103088.66;2063826;28;20110;-63
2022/04/29 01:22:13;;;;;;;19.00;9.43;;;;;;;2.81;95.19;103093.75;2065164;28;20043;-63
2022/04/29 01:23:14;;;;;;;12.52;7.55;;;;;;;2.77;95.18;103091.81;2063620;28;20039;-64
2022/04/29 01:24:16;;;;;;;19.30;10.02;;;;;;;2.78;95.16;103098.94;2055653;28;20805;-63
2022/04/29 01:25:18;;;;;;;18.98;9.85;;;;;;;2.84;95.71;103090.34;2063020;28;47870;-65
2022/04/29 01:26:24;;;;;;;19.48;8.93;;;;;;;2.79;95.38;103086.59;2064343;28;20948;-63
2022/04/29 01:27:26;;;;;;;16.52;9.18;;;;;;;2.77;95.44;103094.47;2071600;28;20042;-63
2022/04/29 01:28:30;;;;;;;16.85;8.35;;;;;;;2.74;95.29;103094.31;2063682;28;20508;-63
2022/04/29 01:29:33;;;;;;;18.25;9.38;;;;;;;2.72;94.85;103090.69;2064240;28;20967;-63
2022/04/29 01:30:36;;;;;;;18.35;9.70;;;;;;;2.73;96.15;103091.59;2055788;28;20170;-64
2022/04/29 01:31:39;;;;;;;23.13;9.65;;;;;;;2.77;96.29;103090.91;2048409;28;20085;-64
2022/04/29 01:32:42;;;;;;;22.48;11.52;;;;;;;2.87;95.90;103082.53;2064432;28;20039;-64
2022/04/29 01:33:50;;;;;;;19.50;9.63;;;;;;;2.81;96.25;103091.09;2063306;28;32196;-64
2022/04/29 01:34:53;;;;;;;16.90;9.82;;;;;;;2.78;95.81;103084.78;2047814;28;20063;-65
2022/04/29 01:35:55;;;;;;;23.08;11.20;;;;;;;2.89;96.54;103079.94;2055876;28;20051;-64
2022/04/29 01:36:57;;;;;;;18.65;10.57;;;;;;;2.82;95.91;103084.09;2055578;28;20077;-63
2022/04/29 01:37:59;;;;;;;24.30;9.77;;;;;;;2.79;96.54;103083.94;2055054;28;21576;-64
2022/04/29 01:39:02;;;;;;;19.13;10.35;;;;;;;2.88;96.51;103080.81;2055544;28;20904;-63
2022/04/29 01:40:06;;;;;;;23.25;10.60;;;;;;;2.81;96.61;103082.28;2063090;28;20796;-63
2022/04/29 01:41:08;;;;;;;23.67;10.07;;;;;;;2.79;95.56;103087.50;2062851;28;47544;-65
2022/04/29 01:42:13;;;;;;;23.65;11.07;;;;;;;2.78;95.92;103079.47;2063363;28;20190;-63
2022/04/29 01:43:15;;;;;;;22.65;10.30;;;;;;;2.79;96.04;103083.94;2055208;28;20082;-63
2022/04/29 01:44:16;;;;;;;26.58;11.27;;;;;;;2.87;96.96;103082.53;2054279;28;44619;-63
2022/04/29 01:45:18;;;;;;;21.27;11.02;;;;;;;2.87;96.64;103079.88;2063437;28;29488;-64
2022/04/29 01:46:38;;;;;;;21.92;10.35;;;;;;;2.82;96.11;103076.16;2064038;28;20051;-64
2022/04/29 01:48:12;;;;;;;22.00;9.98;;;;;;;2.81;96.61;103074.34;2046885;28;20051;-64
2022/04/29 01:49:31;;;;;;;20.73;10.50;;;;;;;2.78;96.64;103071.53;2062302;28;20041;-64
2022/04/29 01:50:35;;;;;;;21.55;10.45;;;;;;;2.75;95.91;103071.44;2055601;28;20138;-63
2022/04/29 01:51:37;;;;;;;19.35;10.15;;;;;;;2.71;95.81;103072.13;2062699;28;45251;-64
2022/04/29 01:52:39;;;;;;;20.40;10.75;;;;;;;2.72;96.34;103073.94;2063551;28;20069;-63
2022/04/29 01:53:41;;;;;;;29.58;12.57;;;;;;;2.77;96.29;103075.06;2063039;28;28953;-64
2022/04/29 01:54:43;;;;;;;24.85;12.75;;;;;;;2.79;96.85;103070.72;2071411;28;20046;-64
2022/04/29 01:55:46;;;;;;;23.42;12.05;;;;;;;2.74;96.40;103069.63;2070543;28;46164;-63
2022/04/29 01:56:52;;;;;;;20.15;10.15;;;;;;;2.70;95.90;103065.03;2063530;28;20113;-63
2022/04/29 01:57:56;;;;;;;20.42;11.13;;;;;;;2.68;96.20;103071.16;2056121;28;20425;-64
2022/04/29 01:59:04;;;;;;;23.73;10.90;;;;;;;2.64;95.82;103082.44;2063293;28;20097;-65
2022/04/29 02:00:11;;;;;;;16.98;9.10;;;;;;;2.62;95.89;103075.25;2057085;28;20044;-64
2022/04/29 02:01:23;;;;;;;16.67;9.02;;;;;;;2.59;96.17;103075.16;2062751;28;20331;-64
2022/04/29 02:02:25;;;;;;;18.45;10.20;;;;;;;2.58;95.81;103071.56;2054824;28;20039;-64
2022/04/29 02:03:27;;;;;;;24.02;10.40;;;;;;;2.57;95.99;103072.44;2062596;28;20050;-65
2022/04/29 02:04:29;;;;;;;18.52;10.23;;;;;;;2.56;96.40;103067.97;2063309;28;20143;-64
2022/04/29 02:05:31;;;;;;;16.80;9.77;;;;;;;2.56;96.00;103067.97;2071163;28;20160;-64
2022/04/29 02:06:37;;;;;;;19.83;11.05;;;;;;;2.53;95.95;103073.13;2063083;28;20031;-64
2022/04/29 02:07:40;;;;;;;18.00;9.93;;;;;;;2.52;95.67;103066.03;2055945;28;20047;-63
2022/04/29 02:08:42;;;;;;;18.83;8.48;;;;;;;2.50;96.39;103070.34;2063295;28;20050;-64
2022/04/29 02:09:46;;;;;;;19.80;9.27;;;;;;;2.51;96.14;103073.88;2063341;28;20125;-64
2022/04/29 02:10:50;;;;;;;25.35;11.60;;;;;;;2.53;95.87;103072.22;2047599;28;20802;-64
2022/04/29 02:12:06;;;;;;;24.10;10.77;;;;;;;2.51;95.82;103069.50;2048912;28;20098;-64
2022/04/29 02:13:38;;;;;;;14.10;8.43;;;;;;;2.50;96.14;103065.06;2076271;23;20034;-67
2022/04/29 02:15:00;;;;;;;16.45;9.85;;;;;;;2.48;96.73;103064.97;2079511;28;20046;-67
2022/04/29 02:16:14;;;;;;;20.65;10.50;;;;;;;2.47;96.43;103065.81;2079544;28;20057;-66
2022/04/29 02:17:17;;;;;;;20.90;10.80;;;;;;;2.46;96.66;103068.41;2071341;28;20365;-66
2022/04/29 02:18:20;;;;;;;21.98;11.10;;;;;;;2.43;96.70;103057.69;2079637;28;20049;-66
2022/04/29 02:19:23;;;;;;;20.70;10.68;;;;;;;2.44;96.96;103062.13;2086936;28;43349;-66
2022/04/29 02:20:25;;;;;;;25.45;11.32;;;;;;;2.42;96.67;103061.16;2087183;28;20041;-66
2022/04/29 02:21:29;;;;;;;17.40;10.82;;;;;;;2.38;95.78;103061.84;2063093;28;22620;-67
2022/04/29 02:22:31;;;;;;;17.50;10.32;;;;;;;2.34;95.78;103066.09;2072164;28;20205;-67
2022/04/29 02:23:36;;;;;;;17.73;10.10;;;;;;;2.28;95.58;103056.16;2071790;28;20117;-67
2022/04/29 02:24:37;;;;;;;19.33;9.77;;;;;;;2.25;96.33;103061.28;2072056;28;20173;-67
2022/04/29 02:25:40;;;;;;;18.92;9.65;;;;;;;2.23;96.35;103067.38;2079626;28;20038;-67
2022/04/29 02:26:42;;;;;;;22.08;9.98;;;;;;;2.19;96.19;103061.03;2086398;28;44391;-66
2022/04/29 02:27:44;;;;;;;17.00;8.80;;;;;;;2.19;95.96;103061.03;2079535;28;20042;-66
2022/04/29 02:28:47;;;;;;;19.70;9.15;;;;;;;2.16;96.05;103062.63;2070803;28;20050;-67
2022/04/29 02:29:48;;;;;;;16.27;8.80;;;;;;;2.11;96.48;103065.03;2070647;28;20061;-67
2022/04/29 02:30:51;;;;;;;20.08;8.88;;;;;;;2.06;96.39;103056.00;2071354;28;20026;-67
2022/04/29 02:31:54;;;;;;;17.13;9.50;;;;;;;2.06;96.02;103056.00;2070209;28;46684;-67
2022/04/29 02:32:56;;;;;;;17.33;9.35;;;;;;;2.06;96.80;103056.00;2070525;28;44769;-67
2022/04/29 02:33:59;;;;;;;22.70;10.45;;;;;;;2.06;96.59;103051.66;2079694;28;21818;-67
2022/04/29 02:35:02;;;;;;;22.42;10.70;;;;;;;2.05;96.44;103054.22;2087035;28;20054;-66
2022/04/29 02:36:05;;;;;;;21.05;10.55;;;;;;;2.06;96.18;103053.34;2079635;28;20050;-67
2022/04/29 02:37:07;;;;;;;24.10;11.75;;;;;;;2.07;97.21;103057.81;2070997;28;20055;-67
2022/04/29 02:38:09;;;;;;;14.05;9.27;;;;;;;2.06;97.11;103053.34;2064190;28;31078;-67
2022/04/29 02:39:11;;;;;;;18.73;10.38;;;;;;;2.06;96.44;103053.34;2055079;28;20047;-67
2022/04/29 02:40:15;;;;;;;19.55;10.20;;;;;;;2.04;97.12;103057.66;2063120;28;20098;-67
2022/04/29 02:41:17;;;;;;;18.17;8.82;;;;;;;2.00;96.21;103048.69;2062855;28;20077;-67
2022/04/29 02:42:19;;;;;;;19.00;9.73;;;;;;;1.96;95.72;103057.31;2055012;28;25559;-66
2022/04/29 02:43:21;;;;;;;16.40;9.82;;;;;;;1.93;96.25;103049.25;2071009;28;20046;-66
2022/04/29 02:44:23;;;;;;;18.83;11.23;;;;;;;1.91;96.19;103046.53;2065423;28;20066;-67
2022/04/29 02:45:25;;;;;;;21.27;10.90;;;;;;;1.92;96.53;103047.47;2056035;28;20896;-67
2022/04/29 02:46:30;;;;;;;25.83;10.98;;;;;;;1.91;96.41;103043.88;2071203;28;20049;-66
2022/04/29 02:47:31;;;;;;;23.40;11.95;;;;;;;1.95;96.48;103037.00;2061934;28;45257;-66
2022/04/29 02:48:35;;;;;;;19.42;10.43;;;;;;;1.97;97.27;103045.00;2055221;28;20889;-66
2022/04/29 02:49:44;;;;;;;26.80;12.50;;;;;;;2.00;97.50;103046.06;2055067;28;20824;-67
2022/04/29 02:50:46;;;;;;;27.38;12.55;;;;;;;2.01;97.41;103039.97;2063067;28;20043;-66
2022/04/29 02:51:50;;;;;;;24.38;11.00;;;;;;;2.05;97.06;103041.00;2062601;28;20931;-67
2022/04/29 02:52:52;;;;;;;24.52;12.70;;;;;;;2.11;97.77;103046.56;2061959;28;45386;-66
2022/04/29 02:53:54;;;;;;;21.23;11.52;;;;;;;2.12;98.16;103039.53;2062976;28;20047;-67
2022/04/29 02:54:56;;;;;;;21.63;11.50;;;;;;;2.14;96.94;103046.69;2054648;28;21301;-66
2022/04/29 02:56:16;;;;;;;20.45;10.52;;;;;;;2.15;98.01;103040.56;2057385;28;20039;-66
2022/04/29 02:57:39;;;;;;;26.08;10.93;;;;;;;2.14;97.40;103040.53;2065237;28;20039;-66
2022/04/29 02:58:43;;;;;;;24.42;11.70;;;;;;;2.13;97.59;103042.25;2061939;28;43085;-67
2022/04/29 02:59:44;;;;;;;21.42;11.77;;;;;;;2.14;97.71;103035.25;2047173;28;20040;-66
2022/04/29 03:00:47;;;;;;;19.25;10.07;;;;;;;2.14;97.80;103038.78;2055067;28;20150;-66
2022/04/29 03:01:48;;;;;;;18.25;10.77;;;;;;;2.12;97.66;103040.44;2063022;28;21814;-66
2022/04/29 03:02:50;;;;;;;21.30;10.32;;;;;;;2.10;96.90;103031.56;2070979;28;26423;-66
2022/04/29 03:03:53;;;;;;;19.13;9.73;;;;;;;2.09;97.51;103032.38;2070859;28;20942;-66
2022/04/29 03:04:55;;;;;;;17.50;10.43;;;;;;;2.07;97.11;103031.41;2062279;28;41941;-66
2022/04/29 03:05:59;;;;;;;17.98;9.40;;;;;;;2.06;96.97;103032.22;2055275;28;20146;-66
2022/04/29 03:07:01;;;;;;;16.00;10.27;;;;;;;2.00;97.17;103032.84;2062240;28;38138;-66
2022/04/29 03:08:17;;;;;;;19.25;10.77;;;;;;;1.98;97.22;103028.34;2062692;28;20042;-66
2022/04/29 03:09:20;;;;;;;17.30;9.95;;;;;;;1.98;97.56;103028.34;2057305;28;21026;-66
2022/04/29 03:10:21;;;;;;;19.60;9.38;;;;;;;1.96;97.19;103024.72;2071143;28;20907;-67
2022/04/29 03:11:24;;;;;;;16.30;9.38;;;;;;;1.93;97.07;103020.19;2062935;28;20124;-67
2022/04/29 03:12:26;;;;;;;21.95;11.05;;;;;;;1.90;97.00;103031.53;2062931;28;20097;-67
2022/04/29 03:13:38;;;;;;;15.32;9.70;;;;;;;1.93;96.70;103014.91;2064223;28;20171;-66
2022/04/29 03:14:43;;;;;;;25.75;11.23;;;;;;;1.96;97.64;103016.81;2063266;28;20092;-66
2022/04/29 03:15:48;;;;;;;14.20;9.20;;;;;;;1.96;97.91;103020.34;2054945;28;20044;-66
2022/04/29 03:16:50;;;;;;;21.13;10.95;;;;;;;1.96;97.14;103008.88;2055451;28;34049;-67
2022/04/29 03:19:17;;;;;;;24.75;11.32;;;;;;;1.94;96.74;103013.16;2062931;28;20047;-67
2022/04/29 03:20:19;;;;;;;20.95;9.82;;;;;;;1.96;97.28;103004.50;2063218;28;20845;-66
2022/04/29 03:21:20;;;;;;;21.60;11.93;;;;;;;1.96;97.37;103007.13;2070187;28;41847;-67
2022/04/29 03:22:23;;;;;;;25.50;11.65;;;;;;;1.96;97.49;103015.06;2070977;28;35320;-66
2022/04/29 03:23:25;;;;;;;25.75;12.55;;;;;;;2.00;97.87;103006.44;2070663;28;25494;-67
2022/04/29 03:24:28;;;;;;;23.02;11.13;;;;;;;1.99;96.93;103009.94;2071508;28;20169;-66
2022/04/29 03:25:30;;;;;;;24.33;10.85;;;;;;;2.00;97.01;103010.81;2071474;28;36792;-66
2022/04/29 03:26:33;;;;;;;22.05;10.90;;;;;;;1.99;98.13;103009.94;2070705;28;20042;-67
2022/04/29 03:27:34;;;;;;;16.08;10.63;;;;;;;2.02;97.91;103003.88;2070528;28;43127;-67
2022/04/29 03:28:36;;;;;;;23.88;11.60;;;;;;;2.01;97.19;103007.31;2070695;28;20046;-67
2022/04/29 03:29:38;;;;;;;19.13;10.20;;;;;;;2.02;97.84;103009.16;2070059;28;28792;-67
2022/04/29 03:30:41;;;;;;;21.70;10.23;;;;;;;1.96;97.27;103004.50;2063020;28;20125;-67
2022/04/29 03:31:44;;;;;;;24.17;11.63;;;;;;;1.94;97.92;103007.88;2063322;28;21051;-66
2022/04/29 03:33:01;;;;;;;24.48;12.25;;;;;;;1.91;97.15;103009.53;2096773;22;20579;-64
2022/04/29 03:34:05;;;;;;;;;;;;;;;1.88;97.64;103009.44;2082166;28;20115;-65
2022/04/29 03:35:07;;;;;;;14.95;9.23;;;;;;;1.86;97.16;103012.81;2078149;28;45839;-65
2022/04/29 03:36:09;;;;;;;21.73;9.90;;;;;;;1.82;97.09;103017.06;2086482;28;43719;-66
2022/04/29 03:37:12;;;;;;;22.40;12.10;;;;;;;1.84;97.37;103015.38;2070552;28;20054;-64
2022/04/29 03:38:14;;;;;;;18.63;10.10;;;;;;;1.84;97.26;103010.09;2070231;28;36142;-64
2022/04/29 03:39:16;;;;;;;31.30;11.73;;;;;;;1.84;97.16;103017.13;2062171;28;20074;-64
2022/04/29 03:40:21;;;;;;;19.45;9.02;;;;;;;1.84;97.63;103018.03;2062362;28;20060;-65
2022/04/29 03:41:23;;;;;;;17.80;10.35;;;;;;;1.83;97.94;103018.88;2064794;28;20665;-65
2022/04/29 03:42:31;;;;;;;16.33;9.60;;;;;;;1.83;97.84;103018.88;2072682;28;20091;-65
2022/04/29 03:43:33;;;;;;;17.40;10.32;;;;;;;1.83;96.97;103016.22;2064382;28;20125;-65
2022/04/29 03:44:34;;;;;;;21.75;10.38;;;;;;;1.85;97.75;103019.84;2064412;28;20138;-63
2022/04/29 03:45:36;;;;;;;23.52;11.65;;;;;;;1.84;96.92;103017.13;2072637;28;20116;-64
2022/04/29 03:46:39;;;;;;;22.13;11.55;;;;;;;1.87;98.02;103015.53;2072279;28;20041;-63
2022/04/29 03:47:42;;;;;;;18.92;11.68;;;;;;;1.87;97.57;103014.63;2071895;28;30753;-65
2022/04/29 03:50:28;;;;;;;24.88;11.82;;;;;;;1.85;97.22;103019.84;2069680;28;20788;-64
2022/04/29 03:51:39;;;;;;;15.48;9.77;;;;;;;1.88;97.70;103013.78;2071981;28;20801;-64
2022/04/29 03:52:49;;;;;;;21.25;10.52;;;;;;;1.91;97.86;103011.28;2072059;28;20078;-64
2022/04/29 03:53:51;;;;;;;22.77;11.95;;;;;;;1.93;98.31;103014.91;2057067;28;20075;-64
2022/04/29 03:54:54;;;;;;;17.45;10.73;;;;;;;1.94;97.55;103015.81;2056409;28;20047;-65
2022/04/29 03:55:57;;;;;;;21.88;11.48;;;;;;;1.93;96.99;103009.63;2064846;28;20950;-65
2022/04/29 03:57:01;;;;;;;27.63;12.70;;;;;;;1.93;97.07;103014.00;2064487;28;20057;-64
2022/04/29 03:58:04;;;;;;;19.67;9.57;;;;;;;1.94;97.75;103019.38;2072324;28;20970;-64
2022/04/29 03:59:16;;;;;;;25.05;12.35;;;;;;;1.98;97.33;103018.66;2065511;28;20047;-64
2022/04/29 04:00:18;;;;;;;22.92;12.63;;;;;;;1.98;98.14;103020.41;2062928;28;44782;-65
2022/04/29 04:01:20;;;;;;;21.55;10.98;;;;;;;2.01;97.16;103018.81;2072086;28;20042;-64
2022/04/29 04:02:30;;;;;;;25.80;12.88;;;;;;;2.05;98.05;103012.84;2072042;28;20916;-64
2022/04/29 04:03:32;;;;;;;20.70;10.80;;;;;;;2.07;97.85;103021.72;2071962;28;20888;-64
2022/04/29 04:04:46;;;;;;;19.45;11.30;;;;;;;2.08;98.16;103019.97;2080848;28;20038;-64
2022/04/29 04:07:09;;;;;;;24.17;12.35;;;;;;;2.15;98.60;103022.06;2072309;28;20043;-65
2022/04/29 04:08:23;;;;;;;29.67;12.73;;;;;;;2.20;98.82;103031.09;2057741;28;20825;-64
2022/04/29 04:09:24;;;;;;;18.75;10.07;;;;;;;2.20;98.04;103027.56;2063985;28;20043;-64
2022/04/29 04:10:32;;;;;;;21.23;11.65;;;;;;;2.20;97.94;103020.53;2064082;28;20051;-66
2022/04/29 04:11:33;;;;;;;22.40;11.20;;;;;;;2.20;98.12;103023.19;2055114;28;43058;-64
2022/04/29 04:12:49;;;;;;;27.42;13.82;;;;;;;2.23;97.85;103030.38;2056114;28;20040;-65
2022/04/29 04:14:09;;;;;;;17.23;10.70;;;;;;;2.28;99.02;103029.72;2064396;28;20051;-64
2022/04/29 04:15:26;;;;;;;27.17;12.80;;;;;;;2.32;99.05;103038.69;2068069;28;20974;-65
2022/04/29 04:16:27;;;;;;;18.60;11.10;;;;;;;2.34;98.40;103034.38;2055886;28;20046;-64
2022/04/29 04:17:31;;;;;;;23.48;11.80;;;;;;;2.35;98.71;103041.50;2056616;28;20047;-65
2022/04/29 04:18:33;;;;;;;27.85;12.85;;;;;;;2.39;98.49;103034.59;2072084;28;20890;-64
2022/04/29 04:19:35;;;;;;;22.55;12.52;;;;;;;2.44;97.90;103033.03;2064391;28;20039;-63
2022/04/29 04:20:37;;;;;;;17.88;11.18;;;;;;;2.46;98.17;103023.47;2055335;28;30939;-64
2022/04/29 04:21:39;;;;;;;21.13;12.30;;;;;;;2.52;98.17;103022.81;2063987;28;20083;-64
2022/04/29 04:22:43;;;;;;;20.83;10.52;;;;;;;2.55;98.32;103015.94;2056251;28;20948;-64
2022/04/29 04:23:45;;;;;;;18.33;10.70;;;;;;;2.58;97.29;103017.78;2056270;28;20043;-64
2022/04/29 04:24:47;;;;;;;21.55;11.35;;;;;;;2.61;97.50;103018.81;2055994;28;20966;-64
2022/04/29 04:25:50;;;;;;;21.58;10.95;;;;;;;2.64;97.61;103016.31;2063943;28;20046;-65
2022/04/29 04:26:53;;;;;;;24.55;11.95;;;;;;;2.68;98.02;103020.91;2063496;28;20725;-64
2022/04/29 04:27:55;;;;;;;26.65;13.13;;;;;;;2.75;97.56;103029.13;2063673;28;20237;-64
2022/04/29 04:29:07;;;;;;;18.70;11.13;;;;;;;2.75;98.02;103022.06;2065142;28;20125;-64
2022/04/29 04:30:15;;;;;;;21.70;11.82;;;;;;;2.79;97.67;103025.75;2063336;28;20082;-64
2022/04/29 04:31:21;;;;;;;18.58;10.70;;;;;;;2.83;97.50;103018.00;2064408;28;20970;-64
2022/04/29 04:32:28;;;;;;;18.90;12.30;;;;;;;2.88;97.37;103018.22;2064050;28;20039;-64
2022/04/29 04:33:30;;;;;;;21.00;9.52;;;;;;;2.92;97.53;103021.88;2064042;28;20133;-64
2022/04/29 04:34:49;;;;;;;18.70;11.50;;;;;;;2.95;97.24;103028.22;2063859;28;21062;-64
2022/04/29 04:35:51;;;;;;;18.20;10.70;;;;;;;3.00;97.04;103029.31;2057753;28;20051;-64
2022/04/29 04:36:53;;;;;;;22.65;12.15;;;;;;;3.05;97.48;103035.69;2055859;28;20882;-64
2022/04/29 04:37:57;;;;;;;21.42;12.80;;;;;;;3.10;97.21;103034.97;2061528;28;20859;-64
2022/04/29 04:39:18;;;;;;;19.63;11.05;;;;;;;3.13;97.52;103032.47;2066326;28;20042;-64
2022/04/29 04:40:20;;;;;;;19.38;10.70;;;;;;;3.16;96.94;103033.50;2071719;28;20880;-64
2022/04/29 04:41:24;;;;;;;17.77;10.60;;;;;;;3.20;96.65;103037.19;2064286;28;20047;-64
2022/04/29 04:42:26;;;;;;;24.13;12.50;;;;;;;3.23;96.46;103037.28;2071432;28;44647;-64
2022/04/29 04:43:32;;;;;;;17.98;10.40;;;;;;;3.29;96.77;103034.91;2072003;28;20027;-64
2022/04/29 04:44:37;;;;;;;16.63;10.25;;;;;;;3.32;97.18;103032.38;2064087;28;20032;-64
2022/04/29 04:45:39;;;;;;;21.85;13.35;;;;;;;3.38;96.99;103040.56;2063731;28;20039;-64
2022/04/29 04:47:07;;;;;;;18.83;10.85;;;;;;;3.42;96.50;103039.84;2037218;28;20930;-64
2022/04/29 04:48:27;;;;;;;23.80;11.32;;;;;;;3.47;96.72;103041.78;2071717;28;20054;-64
2022/04/29 04:49:49;;;;;;;19.15;11.63;;;;;;;3.54;96.67;103043.84;2071777;28;20939;-64
2022/04/29 04:51:01;;;;;;;19.80;12.00;;;;;;;3.57;96.87;103039.59;2071541;28;20046;-65
2022/04/29 04:52:05;;;;;;;16.95;11.98;;;;;;;3.62;96.55;103039.75;2056482;28;21215;-64
2022/04/29 04:53:07;;;;;;;19.13;11.00;;;;;;;3.65;96.17;103042.53;2048919;28;20040;-65
2022/04/29 04:54:08;;;;;;;21.75;11.35;;;;;;;3.69;96.17;103043.53;2063389;28;44238;-64
2022/04/29 04:55:12;;;;;;;20.90;13.38;;;;;;;3.76;96.10;103051.78;2071629;28;21169;-64
2022/04/29 04:56:15;;;;;;;20.83;11.93;;;;;;;3.79;96.11;103054.56;2072247;28;20222;-64
2022/04/29 04:57:17;;;;;;;24.25;12.73;;;;;;;3.85;96.04;103039.75;2071451;28;20835;-64
2022/04/29 04:58:19;;;;;;;21.58;13.40;;;;;;;3.91;95.68;103039.97;2063783;28;20043;-64
2022/04/29 04:59:21;;;;;;;26.67;13.55;;;;;;;3.95;95.75;103036.63;2063340;28;20101;-65
2022/04/29 05:00:25;;;;;;;17.90;10.98;;;;;;;4.00;95.31;103037.66;2072191;28;20131;-64
2022/04/29 05:01:59;;;;;;;20.63;11.40;;;;;;;4.09;94.95;103038.03;2075363;28;20043;-63
2022/04/29 05:03:40;;;;;;;18.05;10.38;;;;;;;4.16;94.92;103045.38;2072416;28;20757;-64